Date,TemperatureHighF,TemperatureAvgF,TemperatureLowF,DewpointHighF,DewpointAvgF,DewpointLowF,HumidityHigh,HumidityAvg,HumidityLow,PressureMaxIn,PressureMinIn,WindSpeedMaxMPH,WindSpeedAvgMPH,GustSpeedMaxMPH,PrecipitationSumIn
2014-3-1,68,58,50,50,48,46,93,72,49,29.81,29.48,22,6,23,0.02
2014-3-2,63,54,47,56,49,45,94,86,69,30.17,29.81,22,3,22,0.00
2014-3-3,62,53,44,53,48,42,96,85,61,30.16,30.03,8,1,9,0.07
2014-3-4,67,58,53,57,54,51,96,87,68,30.11,30.03,12,2,12,0.01
2014-3-5,72,61,52,58,54,49,97,78,56,30.09,29.98,14,2,15,0.21
2014-3-6,67,59,48,58,52,46,96,81,52,30.18,30.03,12,3,13,0.05
2014-3-7,70,55,43,50,46,42,97,75,39,30.18,30.08,16,2,16,0.00
2014-3-8,75,58,42,52,47,40,95,69,41,30.20,30.11,9,1,10,0.00
2014-3-9,78,64,54,57,53,48,85,68,40,30.19,30.05,12,2,12,0.00
2014-3-10,70,60,51,54,48,40,92,65,42,30.22,30.08,14,3,14,0.04
2014-3-11,70,59,45,42,33,22,76,42,22,30.19,30.01,21,5,21,0.00
2014-3-12,75,64,51,39,30,20,61,29,20,30.10,29.99,18,6,23,0.00
2014-3-13,79,58,41,48,38,25,85,52,15,30.07,29.95,17,3,17,0.00
2014-3-14,75,59,47,53,49,44,90,72,40,30.21,30.04,11,3,13,0.00
2014-3-15,81,62,44,49,44,32,94,60,18,30.30,30.21,12,2,12,0.00
2014-3-16,84,61,44,52,45,34,90,63,18,30.30,30.15,19,3,19,0.00
2014-3-17,70,58,49,51,44,36,87,64,32,30.23,29.96,19,4,20,0.00
2014-3-18,72,56,40,40,34,25,88,51,19,29.98,29.88,16,2,16,0.00
2014-3-19,77,58,40,44,38,32,84,53,25,30.08,29.97,18,2,19,0.00
2014-3-20,77,60,47,51,44,38,84,60,27,30.05,29.91,18,2,18,0.00
2014-3-21,71,56,44,50,46,41,93,72,45,29.98,29.90,16,4,17,0.00
2014-3-22,72,57,47,52,47,44,91,71,44,30.10,29.98,17,3,17,0.00
2014-3-23,74,58,44,53,47,42,92,70,42,30.16,30.05,14,2,14,0.00
2014-3-24,79,60,42,52,44,39,93,60,27,30.14,29.99,15,2,15,0.00
2014-3-25,67,54,44,56,48,33,92,79,50,30.03,29.85,17,3,22,0.22
2014-3-26,61,54,49,54,50,47,94,86,64,29.97,29.81,20,4,22,0.48
2014-3-27,66,56,50,52,48,45,95,77,50,30.14,29.97,14,2,14,0.05
2014-3-28,72,59,48,52,49,46,94,73,47,30.19,30.09,17,3,17,0.00
2014-3-29,62,56,50,57,51,47,93,83,73,30.13,29.98,18,3,18,0.40
2014-3-30,62,52,43,50,45,41,97,77,51,30.12,30.02,16,3,17,0.00
2014-3-31,57,47,42,48,43,41,95,87,61,30.08,29.83,23,3,24,0.79